UKDE/OZH METAR and TAF weather

Enter ICAO airport designator
Station Type Date Time Source
UKDE METAR 2019/08/25 06:30 UTC NOAA

UKDE 250630Z 36005MPS 320V030 CAVOK 27/17 Q1022 R02R/090070 NOSIG


Station Type Date Time Source
UKDE Decoded METAR 2019/08/25 06:30 UTC NOAA

Station name not available
Aug 25, 2019 - 02:30 AM EDT / 2019.08.25 0630 UTC
Wind: from the N (360 degrees) at 11 MPH (10 KT) (direction variable):0
Visibility: greater than 7 mile(s):0
Temperature: 80 F (27 C)
Dew Point: 62 F (17 C)
Relative Humidity: 54%
Pressure (altimeter): 30.18 in. Hg (1022 hPa)
ob: UKDE 250630Z 36005MPS 320V030 CAVOK 27/17 Q1022 R02R/090070 NOSIG
cycle: 6

Station Type Date Time Source
UKDE TAF 2019/07/25 03:27 UTC NOAA

TAF
AMD TAF
AMD UKDE 250323Z 2503/2515 32003MPS 9999 SCT030 TX28/2512Z TN17/2503Z
TEMPO 2503/2505 1000 BR SCT010 PROB40
TEMPO 2510/2512 VRB10G15MPS 1000 TSRA SQ BKN020CB

Example: see airport list